Time;durP1;ratioP1;P1;durP2;ratioP2;P2;SDS_P1;SDS_P2;PMS_P1;PMS_P2;Temp;Humidity;BMP_temperature;BMP_pressure;BME280_temperature;BME280_humidity;BME280_pressure;Samples;Min_cycle;Max_cycle;Signal;HPM_P1;HPM_P2
2021/10/30 00:02:00;;;;;;;15.98;9.73;;;7.70;78.80;;;;;;5114918;28;20051;-75
2021/10/30 00:04:25;;;;;;;16.48;10.38;;;7.80;78.60;;;;;;5115024;28;20071;-74
2021/10/30 00:06:52;;;;;;;17.23;9.93;;;7.80;78.60;;;;;;5114962;28;20012;-75
2021/10/30 00:09:18;;;;;;;14.35;9.50;;;7.80;78.20;;;;;;5114895;28;20399;-74
2021/10/30 00:11:44;;;;;;;18.92;11.23;;;7.70;78.00;;;;;;5114841;28;20041;-74
2021/10/30 00:14:09;;;;;;;16.05;9.18;;;7.70;78.00;;;;;;5114923;28;20455;-76
2021/10/30 00:16:35;;;;;;;15.75;9.73;;;7.70;77.90;;;;;;5114641;28;20022;-76
2021/10/30 00:19:00;;;;;;;15.70;9.15;;;7.60;77.60;;;;;;5114459;28;20024;-77
2021/10/30 00:21:26;;;;;;;14.55;8.57;;;7.60;77.60;;;;;;5114505;28;20288;-77
2021/10/30 00:23:52;;;;;;;17.42;8.75;;;7.60;77.60;;;;;;5114522;28;20030;-76
2021/10/30 00:26:17;;;;;;;13.52;7.78;;;7.70;77.50;;;;;;5114671;28;20474;-75
2021/10/30 00:28:44;;;;;;;10.23;6.55;;;7.70;77.30;;;;;;5114655;28;20382;-77
2021/10/30 00:31:10;;;;;;;14.35;7.97;;;7.70;76.00;;;;;;5114584;28;20023;-74
2021/10/30 00:33:36;;;;;;;13.48;8.32;;;7.50;76.70;;;;;;5114525;28;20020;-74
2021/10/30 00:36:01;;;;;;;12.48;8.50;;;7.50;77.70;;;;;;5114395;28;20076;-74
2021/10/30 00:38:27;;;;;;;16.95;9.20;;;7.50;77.90;;;;;;5114153;28;20480;-74
2021/10/30 00:40:52;;;;;;;14.57;8.60;;;7.50;77.70;;;;;;5114333;28;20066;-74
2021/10/30 00:43:18;;;;;;;16.38;9.02;;;7.50;77.50;;;;;;5114269;28;20107;-74
2021/10/30 00:45:47;;;;;;;15.10;8.15;;;7.40;77.30;;;;;;5114226;28;20027;-75
2021/10/30 00:48:14;;;;;;;12.10;7.70;;;7.40;77.20;;;;;;5113819;28;20031;-75
2021/10/30 00:50:40;;;;;;;16.77;9.25;;;7.40;77.00;;;;;;5114007;28;20111;-75
2021/10/30 00:53:07;;;;;;;13.10;8.65;;;7.40;77.10;;;;;;5114085;28;20160;-73
2021/10/30 00:55:34;;;;;;;15.30;7.75;;;7.20;77.30;;;;;;5114129;28;20020;-73
2021/10/30 00:58:02;;;;;;;12.27;7.55;;;7.20;77.40;;;;;;5113792;28;20388;-73
2021/10/30 01:00:27;;;;;;;11.13;7.28;;;7.20;77.00;;;;;;5113787;28;20472;-74
2021/10/30 01:02:53;;;;;;;15.55;6.97;;;7.30;76.90;;;;;;5113716;28;20031;-75
2021/10/30 01:05:19;;;;;;;11.05;6.88;;;7.20;76.70;;;;;;5113882;28;20098;-75
2021/10/30 01:07:45;;;;;;;11.50;6.43;;;7.30;76.90;;;;;;5113659;28;20461;-75
2021/10/30 01:10:12;;;;;;;10.20;6.93;;;7.20;76.70;;;;;;5113698;28;20032;-74
2021/10/30 01:12:38;;;;;;;10.93;6.30;;;7.20;76.90;;;;;;5113645;28;20110;-74
2021/10/30 01:15:05;;;;;;;10.60;6.82;;;7.20;76.50;;;;;;5095131;28;20023;-75
2021/10/30 01:17:32;;;;;;;13.60;8.00;;;7.30;76.50;;;;;;5113396;28;20035;-76
2021/10/30 01:19:58;;;;;;;12.50;7.65;;;7.30;76.60;;;;;;5113511;28;20443;-73
2021/10/30 01:22:23;;;;;;;14.27;7.85;;;7.20;76.40;;;;;;5113446;28;20058;-74
2021/10/30 01:24:50;;;;;;;12.40;7.80;;;7.20;76.70;;;;;;5104871;28;20058;-74
2021/10/30 01:27:17;;;;;;;12.82;6.95;;;7.30;76.70;;;;;;5113273;28;20045;-74
2021/10/30 01:29:43;;;;;;;13.88;6.57;;;7.30;76.40;;;;;;5113229;28;20024;-73
2021/10/30 01:32:09;;;;;;;10.35;7.10;;;7.30;76.20;;;;;;5113103;28;20034;-73
2021/10/30 01:34:34;;;;;;;12.45;7.10;;;7.30;76.20;;;;;;5113001;28;20023;-74
2021/10/30 01:37:00;;;;;;;11.05;7.07;;;7.20;76.10;;;;;;5113216;28;20031;-73
2021/10/30 01:39:26;;;;;;;12.52;7.05;;;7.10;76.40;;;;;;5113305;28;20542;-74
2021/10/30 01:41:52;;;;;;;9.52;6.03;;;7.00;76.60;;;;;;5113097;28;20415;-75
2021/10/30 01:44:18;;;;;;;9.95;6.47;;;7.10;76.70;;;;;;5113220;28;20440;-75
2021/10/30 01:46:43;;;;;;;10.00;6.22;;;7.10;76.60;;;;;;5113057;28;20030;-74
2021/10/30 01:49:09;;;;;;;10.18;6.40;;;7.10;76.80;;;;;;5113179;28;20035;-74
2021/10/30 01:51:34;;;;;;;11.55;5.45;;;7.00;77.00;;;;;;5117834;28;20023;-74
2021/10/30 01:54:00;;;;;;;9.95;5.30;;;7.00;77.00;;;;;;5114660;28;20076;-74
2021/10/30 01:56:26;;;;;;;10.60;5.18;;;6.90;76.90;;;;;;5096009;28;20047;-74
2021/10/30 01:58:52;;;;;;;7.32;4.70;;;6.90;76.80;;;;;;5113416;28;20031;-77
2021/10/30 02:01:18;;;;;;;9.23;6.15;;;6.90;76.70;;;;;;5113209;28;20026;-73
2021/10/30 02:03:43;;;;;;;8.23;5.70;;;7.00;77.40;;;;;;5113161;28;20035;-76
2021/10/30 02:06:09;;;;;;;9.25;5.38;;;7.00;76.40;;;;;;5112978;28;20012;-78
2021/10/30 02:08:36;;;;;;;10.52;6.07;;;6.90;76.20;;;;;;5112812;28;20020;-75
2021/10/30 02:11:02;;;;;;;10.57;5.03;;;6.90;76.20;;;;;;5114430;28;20020;-73
2021/10/30 02:13:28;;;;;;;9.85;5.55;;;6.80;76.10;;;;;;5128391;28;20024;-74
2021/10/30 02:15:53;;;;;;;7.63;5.80;;;6.80;76.30;;;;;;5127743;28;20027;-75
2021/10/30 02:18:19;;;;;;;10.50;5.53;;;6.80;76.30;;;;;;5118771;28;20119;-74
2021/10/30 02:20:45;;;;;;;9.57;5.88;;;6.80;76.40;;;;;;5113162;28;20080;-75
2021/10/30 02:23:11;;;;;;;10.48;6.55;;;6.70;76.60;;;;;;5113197;28;20487;-75
2021/10/30 02:25:37;;;;;;;10.60;6.43;;;6.60;76.70;;;;;;5112894;28;20096;-75
2021/10/30 02:28:03;;;;;;;12.60;6.78;;;6.50;77.10;;;;;;5112878;28;20472;-74
2021/10/30 02:30:29;;;;;;;9.80;6.20;;;6.50;77.20;;;;;;5113175;28;20024;-74
2021/10/30 02:32:55;;;;;;;9.77;5.88;;;6.50;77.30;;;;;;5112873;28;20042;-74
2021/10/30 02:35:21;;;;;;;10.68;4.95;;;6.40;77.40;;;;;;5112968;28;20031;-75
2021/10/30 02:37:47;;;;;;;9.05;5.18;;;6.40;77.30;;;;;;5112786;28;20032;-74
2021/10/30 02:40:13;;;;;;;8.02;5.15;;;6.40;77.90;;;;;;5112844;28;20485;-75
2021/10/30 02:42:38;;;;;;;9.32;4.55;;;6.60;76.90;;;;;;5112967;28;20027;-75
2021/10/30 02:45:06;;;;;;;7.25;4.22;;;6.50;76.20;;;;;;5113704;28;20468;-75
2021/10/30 02:47:32;;;;;;;6.03;4.35;;;6.60;76.00;;;;;;5116664;28;20474;-74
2021/10/30 02:49:58;;;;;;;7.65;4.05;;;6.60;75.60;;;;;;5116548;28;20055;-74
2021/10/30 02:52:25;;;;;;;6.35;4.03;;;6.60;75.50;;;;;;5116665;28;20019;-74
2021/10/30 02:54:51;;;;;;;6.40;3.92;;;6.70;75.20;;;;;;5108117;28;20020;-74
2021/10/30 02:57:16;;;;;;;8.52;4.30;;;6.60;74.90;;;;;;5116250;28;20034;-74
2021/10/30 02:59:42;;;;;;;6.25;4.05;;;6.50;75.10;;;;;;5116111;28;20348;-74
2021/10/30 03:02:08;;;;;;;7.57;4.68;;;6.50;74.90;;;;;;5116215;28;20059;-73
2021/10/30 03:04:34;;;;;;;7.57;4.25;;;6.50;75.00;;;;;;5116207;28;20456;-73
2021/10/30 03:06:59;;;;;;;8.95;4.13;;;6.50;74.90;;;;;;5116227;28;20135;-74
2021/10/30 03:09:25;;;;;;;6.90;3.97;;;6.50;74.90;;;;;;5116279;28;20479;-74
2021/10/30 03:11:50;;;;;;;6.82;3.80;;;6.50;74.80;;;;;;5116127;28;20030;-74
2021/10/30 03:14:16;;;;;;;8.15;3.53;;;6.50;74.70;;;;;;5116019;28;20098;-74
2021/10/30 03:16:42;;;;;;;10.65;3.42;;;6.50;75.60;;;;;;5115823;28;20049;-75
2021/10/30 03:19:08;;;;;;;8.27;3.60;;;6.50;74.30;;;;;;5115843;28;20020;-74
2021/10/30 03:21:33;;;;;;;6.50;3.38;;;6.50;74.20;;;;;;5115924;28;20372;-74
2021/10/30 03:23:59;;;;;;;6.97;3.80;;;6.50;73.90;;;;;;5115787;28;20471;-74
2021/10/30 03:26:25;;;;;;;7.05;3.42;;;6.50;73.50;;;;;;5115927;28;20016;-74
2021/10/30 03:28:51;;;;;;;6.13;3.22;;;6.50;73.50;;;;;;5115681;28;20045;-74
2021/10/30 03:31:16;;;;;;;5.30;3.30;;;6.50;73.20;;;;;;5115851;28;20034;-74
2021/10/30 03:33:42;;;;;;;7.43;3.35;;;6.50;73.20;;;;;;5115603;28;20379;-74
2021/10/30 03:36:08;;;;;;;5.28;2.78;;;6.60;73.10;;;;;;5115578;28;20080;-74
2021/10/30 03:38:34;;;;;;;7.32;3.35;;;6.50;73.30;;;;;;5115234;28;20046;-74
2021/10/30 03:40:59;;;;;;;5.53;3.13;;;6.50;73.30;;;;;;5115514;28;20102;-74
2021/10/30 03:43:25;;;;;;;5.78;2.97;;;6.60;73.10;;;;;;5115495;28;20102;-74
2021/10/30 03:45:51;;;;;;;5.85;2.88;;;6.60;72.90;;;;;;5115186;28;20019;-74
2021/10/30 03:48:18;;;;;;;5.70;3.00;;;6.60;72.60;;;;;;5096854;28;20491;-74
2021/10/30 03:50:45;;;;;;;4.53;2.70;;;6.70;72.50;;;;;;5115307;28;20019;-74
2021/10/30 03:53:10;;;;;;;8.60;2.80;;;6.70;71.50;;;;;;5115275;28;20019;-73
2021/10/30 03:55:36;;;;;;;4.75;2.53;;;6.80;71.10;;;;;;5114741;28;20065;-74
2021/10/30 03:58:02;;;;;;;4.40;2.33;;;6.80;70.60;;;;;;5114974;28;20067;-73
2021/10/30 04:00:28;;;;;;;4.20;2.60;;;6.80;70.70;;;;;;5115134;28;20022;-74
2021/10/30 04:02:54;;;;;;;6.10;3.28;;;6.80;70.70;;;;;;5114857;28;20027;-76
2021/10/30 04:05:21;;;;;;;5.93;2.35;;;6.80;71.20;;;;;;5114709;28;20030;-74
2021/10/30 04:07:46;;;;;;;6.80;2.88;;;6.80;71.40;;;;;;5114462;28;20019;-75
2021/10/30 04:10:12;;;;;;;4.57;3.10;;;6.70;71.50;;;;;;5114834;28;20372;-75
2021/10/30 04:12:38;;;;;;;5.68;2.75;;;6.70;71.50;;;;;;5114784;28;20027;-74
2021/10/30 04:15:04;;;;;;;4.60;2.50;;;6.70;71.70;;;;;;5114761;28;20023;-74
2021/10/30 04:17:30;;;;;;;4.85;2.80;;;6.70;71.70;;;;;;5114867;28;20119;-74
2021/10/30 04:19:55;;;;;;;4.70;2.67;;;6.70;71.90;;;;;;5114777;28;20098;-74
2021/10/30 04:22:21;;;;;;;4.72;2.60;;;6.60;72.10;;;;;;5114759;28;20019;-75
2021/10/30 04:24:47;;;;;;;5.25;2.45;;;6.60;72.30;;;;;;5114587;28;20487;-75
2021/10/30 04:27:12;;;;;;;5.43;2.80;;;6.50;72.50;;;;;;5114561;28;20027;-74
2021/10/30 04:29:38;;;;;;;5.13;2.83;;;6.50;72.50;;;;;;5114545;28;20464;-74
2021/10/30 04:32:05;;;;;;;6.28;3.17;;;6.40;72.90;;;;;;5114482;28;20028;-74
2021/10/30 04:34:52;;;;;;;11.23;3.38;;;6.40;72.80;;;;;;5114493;28;20483;-74
2021/10/30 04:37:17;;;;;;;4.97;3.03;;;6.40;73.00;;;;;;5114380;28;20047;-75
2021/10/30 04:39:49;;;;;;;8.95;4.60;;;6.30;73.60;;;;;;5114191;28;20070;-74
2021/10/30 04:42:15;;;;;;;9.32;3.47;;;6.10;74.60;;;;;;5114261;28;20031;-74
2021/10/30 04:44:41;;;;;;;8.38;3.92;;;6.00;75.40;;;;;;5114253;28;20031;-74
2021/10/30 04:47:09;;;;;;;9.00;4.13;;;5.90;76.50;;;;;;5114067;28;20368;-74
2021/10/30 04:49:35;;;;;;;7.00;4.22;;;5.90;76.80;;;;;;5114202;28;20042;-75
2021/10/30 04:52:01;;;;;;;6.93;3.90;;;5.90;77.20;;;;;;5114084;28;20072;-74
2021/10/30 04:54:26;;;;;;;7.57;4.38;;;5.80;77.50;;;;;;5114028;28;20019;-75
2021/10/30 04:56:52;;;;;;;7.80;4.07;;;5.80;77.50;;;;;;5113853;28;20541;-75
2021/10/30 04:59:17;;;;;;;7.82;4.28;;;5.80;77.90;;;;;;5113960;28;20129;-74
2021/10/30 05:01:43;;;;;;;7.00;4.60;;;5.70;78.20;;;;;;5113891;28;20047;-74
2021/10/30 05:04:09;;;;;;;7.57;4.68;;;5.70;78.50;;;;;;5113891;28;20028;-74
2021/10/30 05:06:34;;;;;;;7.68;5.22;;;5.70;78.70;;;;;;5113533;28;20020;-75
2021/10/30 05:09:00;;;;;;;9.15;5.10;;;5.80;78.50;;;;;;5113092;28;20023;-74
2021/10/30 05:11:25;;;;;;;9.30;5.55;;;5.90;78.60;;;;;;5113895;28;20020;-74
2021/10/30 05:13:51;;;;;;;11.32;5.55;;;6.00;78.50;;;;;;5113783;28;20028;-74
2021/10/30 05:16:16;;;;;;;12.98;5.72;;;6.10;78.30;;;;;;5113655;28;20353;-74
2021/10/30 05:18:42;;;;;;;13.90;7.25;;;6.20;79.20;;;;;;5113556;28;20476;-74
2021/10/30 05:21:07;;;;;;;13.65;7.20;;;6.40;78.30;;;;;;5113692;28;20027;-74
2021/10/30 05:23:37;;;;;;;15.32;7.65;;;6.50;78.90;;;;;;5113445;28;20023;-74
2021/10/30 05:26:03;;;;;;;15.77;7.97;;;6.60;78.10;;;;;;5113550;28;20064;-74
2021/10/30 05:28:29;;;;;;;16.52;8.60;;;6.70;78.10;;;;;;5113614;28;20099;-74
2021/10/30 05:30:54;;;;;;;13.90;7.80;;;6.80;77.60;;;;;;5113355;28;20153;-74
2021/10/30 05:33:20;;;;;;;15.48;7.45;;;7.00;77.40;;;;;;5113459;28;20490;-74
2021/10/30 05:35:46;;;;;;;12.65;7.85;;;7.00;76.70;;;;;;5113470;28;20027;-74
2021/10/30 05:38:16;;;;;;;16.88;9.02;;;7.00;76.60;;;;;;5113385;28;20411;-74
2021/10/30 05:40:42;;;;;;;16.88;8.98;;;7.00;76.80;;;;;;5113337;28;20074;-75
2021/10/30 05:43:10;;;;;;;16.73;9.00;;;7.10;76.70;;;;;;5113101;28;20059;-74
2021/10/30 05:45:38;;;;;;;17.17;8.90;;;7.30;76.40;;;;;;5113319;28;20042;-74
2021/10/30 05:48:06;;;;;;;18.70;9.23;;;7.40;75.80;;;;;;5113228;28;20089;-75
2021/10/30 05:50:32;;;;;;;22.15;9.95;;;7.40;75.50;;;;;;5113211;28;20498;-74
2021/10/30 05:52:57;;;;;;;16.70;9.20;;;7.40;75.20;;;;;;5113220;28;20387;-75
2021/10/30 05:55:23;;;;;;;19.95;9.05;;;7.50;75.10;;;;;;5113406;28;20023;-74
2021/10/30 05:57:49;;;;;;;20.35;9.63;;;7.50;74.80;;;;;;5113271;28;20119;-75
2021/10/30 06:00:14;;;;;;;20.00;8.88;;;7.60;74.20;;;;;;5113800;28;20027;-75
2021/10/30 06:02:40;;;;;;;16.52;8.73;;;7.60;73.90;;;;;;5113455;28;20028;-75
2021/10/30 06:05:06;;;;;;;16.38;9.10;;;7.60;73.60;;;;;;5113598;28;20080;-74
2021/10/30 06:07:31;;;;;;;15.25;8.40;;;7.60;73.30;;;;;;5112930;28;20471;-75
2021/10/30 06:09:57;;;;;;;17.30;8.90;;;7.60;72.90;;;;;;5113607;28;20031;-74
2021/10/30 06:12:22;;;;;;;14.68;8.48;;;7.60;72.40;;;;;;5113980;28;20020;-74
2021/10/30 06:14:48;;;;;;;13.75;7.63;;;7.60;72.20;;;;;;5095176;28;20027;-74
2021/10/30 06:17:13;;;;;;;16.05;8.00;;;7.60;71.80;;;;;;5113589;28;20031;-75
2021/10/30 06:19:39;;;;;;;14.95;7.25;;;7.70;71.80;;;;;;5117486;28;20039;-74
2021/10/30 06:22:04;;;;;;;14.00;7.70;;;7.70;71.60;;;;;;5139703;28;20069;-74
2021/10/30 06:24:30;;;;;;;16.42;7.85;;;7.80;70.70;;;;;;5126940;28;20031;-75
2021/10/30 06:26:55;;;;;;;17.40;8.75;;;7.90;70.60;;;;;;5116733;28;20039;-74
2021/10/30 06:29:21;;;;;;;16.65;7.60;;;8.00;70.20;;;;;;5116721;28;20103;-74
2021/10/30 06:31:47;;;;;;;15.73;7.53;;;8.10;69.50;;;;;;5097983;28;20097;-74
2021/10/30 06:34:12;;;;;;;16.73;7.45;;;8.20;68.60;;;;;;5116399;28;20102;-73
2021/10/30 06:36:38;;;;;;;12.13;7.10;;;8.40;67.60;;;;;;5116692;28;20045;-74
2021/10/30 06:39:03;;;;;;;12.35;6.55;;;8.60;66.30;;;;;;5116300;28;20096;-74
2021/10/30 06:41:29;;;;;;;15.32;6.43;;;8.80;65.00;;;;;;5116380;28;20024;-74
2021/10/30 06:43:55;;;;;;;14.88;7.13;;;9.10;63.80;;;;;;5116294;28;20028;-74
2021/10/30 06:46:21;;;;;;;14.57;6.80;;;9.20;62.70;;;;;;5116150;28;20098;-74
2021/10/30 06:48:49;;;;;;;11.65;6.28;;;9.40;61.80;;;;;;5116507;28;20114;-75
2021/10/30 06:51:15;;;;;;;13.55;6.32;;;9.60;61.10;;;;;;5116547;28;20020;-75
2021/10/30 06:53:41;;;;;;;11.13;5.75;;;9.80;60.20;;;;;;5116389;28;20372;-75
2021/10/30 06:56:07;;;;;;;12.43;5.32;;;10.00;59.60;;;;;;5116404;28;20605;-75
2021/10/30 06:58:33;;;;;;;8.68;4.85;;;10.10;58.80;;;;;;5116153;28;20050;-75
2021/10/30 07:00:58;;;;;;;11.45;5.70;;;10.30;57.90;;;;;;5116267;28;20376;-75
2021/10/30 07:03:25;;;;;;;12.85;5.15;;;10.50;57.30;;;;;;5115955;28;20027;-77
2021/10/30 07:05:50;;;;;;;8.85;5.03;;;10.70;56.30;;;;;;5115913;28;20077;-75
2021/10/30 07:08:17;;;;;;;10.40;4.68;;;10.90;55.60;;;;;;5116221;28;20023;-76
2021/10/30 07:10:42;;;;;;;11.50;4.13;;;10.90;55.20;;;;;;5115704;28;20091;-76
2021/10/30 07:13:08;;;;;;;8.30;5.20;;;11.10;54.60;;;;;;5116038;28;20062;-76
2021/10/30 07:15:34;;;;;;;7.75;4.40;;;11.30;54.00;;;;;;5115853;28;20019;-75
2021/10/30 07:17:59;;;;;;;9.95;4.65;;;11.40;53.10;;;;;;5115577;28;20031;-76
2021/10/30 07:20:25;;;;;;;7.60;4.03;;;11.50;53.20;;;;;;5115444;28;20077;-75
2021/10/30 07:22:51;;;;;;;13.07;5.18;;;11.60;52.30;;;;;;5115626;28;20024;-76
2021/10/30 07:25:20;;;;;;;6.97;4.05;;;11.70;52.90;;;;;;5115584;28;20020;-76
2021/10/30 07:27:47;;;;;;;9.27;4.07;;;11.80;52.60;;;;;;5115696;28;20486;-75
2021/10/30 07:30:14;;;;;;;7.30;4.22;;;11.90;51.20;;;;;;5114930;28;20020;-78
2021/10/30 07:32:41;;;;;;;12.77;4.15;;;12.00;52.90;;;;;;5115438;28;20023;-77
2021/10/30 07:35:07;;;;;;;9.50;4.00;;;12.20;56.10;;;;;;5116554;28;20043;-78
2021/10/30 07:37:33;;;;;;;5.80;3.85;;;12.60;55.00;;;;;;5116487;28;20058;-89
2021/10/30 07:39:59;;;;;;;7.97;4.22;;;12.70;50.10;;;;;;5116994;28;20109;-85
2021/10/30 07:42:26;;;;;;;10.55;3.60;;;12.90;49.00;;;;;;5115857;28;20043;-83
2021/10/30 07:44:52;;;;;;;7.20;2.90;;;13.00;48.00;;;;;;5116100;28;20016;-85
2021/10/30 07:47:18;;;;;;;6.68;3.63;;;13.10;46.40;;;;;;5115299;28;20023;-82
2021/10/30 07:49:44;;;;;;;4.97;3.38;;;13.20;46.00;;;;;;5114890;28;20108;-82
2021/10/30 07:52:10;;;;;;;8.10;3.42;;;13.20;46.30;;;;;;5115615;28;20028;-83
2021/10/30 07:54:36;;;;;;;8.10;4.10;;;13.40;45.80;;;;;;5116138;28;20031;-83
2021/10/30 07:57:03;;;;;;;5.20;2.90;;;13.40;45.40;;;;;;5115331;28;20024;-84
2021/10/30 07:59:31;;;;;;;8.18;3.40;;;13.40;45.50;;;;;;5115455;28;20110;-84
2021/10/30 08:01:59;;;;;;;6.35;3.30;;;13.60;45.00;;;;;;5126008;28;20012;-82
2021/10/30 08:04:25;;;;;;;7.75;3.55;;;13.70;45.10;;;;;;5136960;28;20510;-82
2021/10/30 08:06:51;;;;;;;6.40;2.90;;;13.70;45.00;;;;;;5132313;28;20403;-83
2021/10/30 08:09:17;;;;;;;6.03;3.30;;;13.80;45.50;;;;;;5123590;28;20032;-78
2021/10/30 08:11:43;;;;;;;5.93;3.40;;;14.00;46.10;;;;;;5127084;28;20030;-84
2021/10/30 08:14:08;;;;;;;8.70;3.58;;;14.00;45.10;;;;;;5109534;28;20027;-85
2021/10/30 08:16:34;;;;;;;6.72;3.78;;;14.00;44.60;;;;;;5115464;28;20027;-83
2021/10/30 08:19:00;;;;;;;8.00;3.13;;;14.00;44.60;;;;;;5114706;28;20057;-85
2021/10/30 08:21:25;;;;;;;5.82;3.03;;;14.10;45.40;;;;;;5114889;28;20069;-84
2021/10/30 08:23:51;;;;;;;7.38;3.38;;;14.20;47.50;;;;;;5114720;28;20396;-84
2021/10/30 08:26:18;;;;;;;4.38;2.72;;;14.20;44.80;;;;;;5114686;28;20020;-82
2021/10/30 08:28:45;;;;;;;8.00;3.17;;;14.20;45.20;;;;;;5114965;28;20020;-79
2021/10/30 08:31:12;;;;;;;6.75;3.13;;;14.20;44.50;;;;;;5114233;28;20026;-78
2021/10/30 08:33:38;;;;;;;5.80;3.13;;;14.20;44.30;;;;;;5114152;28;20484;-77
2021/10/30 08:36:04;;;;;;;5.93;3.50;;;14.10;44.50;;;;;;5114025;28;20148;-77
2021/10/30 08:38:33;;;;;;;7.60;4.10;;;14.00;44.70;;;;;;5113902;28;20123;-76
2021/10/30 08:41:00;;;;;;;5.80;3.58;;;13.90;45.60;;;;;;5114278;28;20028;-73
2021/10/30 08:43:27;;;;;;;8.32;3.95;;;13.80;45.90;;;;;;5114048;28;20058;-78
2021/10/30 08:45:54;;;;;;;10.82;3.30;;;13.60;46.80;;;;;;5113962;28;20068;-74
2021/10/30 08:48:25;;;;;;;7.63;3.50;;;13.60;47.10;;;;;;5113989;28;20035;-76
2021/10/30 08:50:52;;;;;;;8.65;3.60;;;13.50;46.90;;;;;;5113754;28;20476;-74
2021/10/30 08:53:19;;;;;;;5.53;3.47;;;13.30;46.80;;;;;;5113701;28;20027;-73
2021/10/30 08:55:46;;;;;;;7.47;3.42;;;13.30;47.00;;;;;;5095306;28;20110;-72
2021/10/30 08:58:14;;;;;;;9.05;3.45;;;13.20;47.30;;;;;;5113449;28;20172;-74
2021/10/30 09:00:45;;;;;;;8.82;3.63;;;13.10;47.80;;;;;;5113568;28;20020;-77
2021/10/30 09:03:13;;;;;;;9.45;4.38;;;13.10;48.50;;;;;;5113980;28;20096;-78
2021/10/30 09:05:40;;;;;;;11.00;4.65;;;13.00;49.10;;;;;;5113841;28;20024;-78
2021/10/30 09:08:07;;;;;;;9.27;4.57;;;13.00;50.20;;;;;;5113553;28;20030;-78
2021/10/30 09:10:36;;;;;;;7.80;4.78;;;12.90;50.80;;;;;;5113657;28;20054;-77
2021/10/30 09:13:09;;;;;;;8.90;5.10;;;12.90;49.70;;;;;;5113723;28;20055;-78
2021/10/30 09:15:39;;;;;;;7.78;3.92;;;12.80;49.40;;;;;;5113482;28;20020;-76
2021/10/30 09:18:20;;;;;;;7.85;4.35;;;12.80;50.20;;;;;;5113612;28;20077;-78
2021/10/30 09:20:49;;;;;;;12.20;4.32;;;12.80;49.60;;;;;;5113446;28;20024;-73
2021/10/30 09:23:29;;;;;;;9.00;4.13;;;12.70;49.90;;;;;;5113383;28;20069;-73
2021/10/30 09:26:08;;;;;;;7.45;4.43;;;12.70;50.10;;;;;;5095012;28;20022;-74
2021/10/30 09:28:44;;;;;;;9.55;4.43;;;12.60;50.60;;;;;;5113475;28;20020;-73
2021/10/30 09:31:11;;;;;;;7.47;4.18;;;12.50;51.30;;;;;;5113108;28;20049;-73
2021/10/30 09:33:50;;;;;;;10.95;4.70;;;12.50;51.80;;;;;;5115409;28;20222;-76
2021/10/30 09:36:16;;;;;;;11.82;6.43;;;12.40;52.00;;;;;;5113022;28;20036;-76
2021/10/30 09:38:46;;;;;;;11.35;6.38;;;12.40;52.40;;;;;;5112924;28;20392;-76
2021/10/30 09:41:32;;;;;;;19.25;8.88;;;12.30;53.80;;;;;;5113180;28;20027;-77
2021/10/30 09:44:00;;;;;;;20.63;10.38;;;12.10;57.00;;;;;;5113175;28;20031;-75
2021/10/30 09:46:30;;;;;;;25.08;10.70;;;11.80;58.90;;;;;;5113299;28;20055;-77
2021/10/30 09:48:58;;;;;;;24.98;11.23;;;11.50;61.10;;;;;;5113227;28;20460;-77
2021/10/30 09:51:32;;;;;;;22.35;11.10;;;11.10;63.70;;;;;;5113216;28;20027;-78
2021/10/30 09:53:58;;;;;;;25.73;11.20;;;11.10;64.20;;;;;;5115202;28;20024;-73
2021/10/30 09:56:37;;;;;;;21.27;10.68;;;10.90;65.40;;;;;;5119496;28;20038;-76
2021/10/30 09:59:04;;;;;;;24.27;11.55;;;10.90;65.30;;;;;;5119359;28;20496;-73
2021/10/30 10:01:30;;;;;;;20.05;10.88;;;10.90;65.40;;;;;;5119761;28;20126;-73
2021/10/30 10:04:00;;;;;;;24.73;11.32;;;10.90;66.70;;;;;;5119586;28;20051;-74
2021/10/30 10:06:25;;;;;;;20.92;9.70;;;10.80;65.90;;;;;;5101533;28;20024;-73
2021/10/30 10:08:52;;;;;;;20.35;10.38;;;10.90;65.80;;;;;;5119656;28;20080;-73
2021/10/30 10:11:19;;;;;;;21.08;10.10;;;10.80;66.40;;;;;;5119714;28;20024;-75
2021/10/30 10:13:48;;;;;;;17.60;10.20;;;10.80;66.30;;;;;;5119852;28;20023;-74
2021/10/30 10:16:19;;;;;;;20.60;9.68;;;10.90;65.90;;;;;;5119486;28;20481;-73
2021/10/30 10:18:46;;;;;;;17.30;8.85;;;11.00;65.50;;;;;;5119211;28;20068;-73
2021/10/30 10:21:22;;;;;;;19.73;9.18;;;11.10;65.20;;;;;;5119168;28;20409;-74
2021/10/30 10:23:48;;;;;;;18.80;9.65;;;11.20;64.80;;;;;;5119376;28;20030;-76
2021/10/30 10:26:15;;;;;;;17.80;9.65;;;11.30;65.30;;;;;;5119614;28;20027;-74
2021/10/30 10:28:41;;;;;;;20.40;9.90;;;11.40;64.50;;;;;;5119386;28;20019;-74
2021/10/30 10:31:23;;;;;;;16.67;9.20;;;11.50;64.30;;;;;;5119153;28;20016;-75
2021/10/30 10:34:32;;;;;;;20.85;11.10;;;11.60;64.00;;;;;;5119179;28;20035;-75
2021/10/30 10:37:17;;;;;;;16.73;9.43;;;11.60;63.70;;;;;;5110557;28;20070;-72
2021/10/30 10:39:45;;;;;;;16.08;8.50;;;11.60;63.30;;;;;;5119304;28;20432;-74
2021/10/30 10:42:16;;;;;;;18.17;9.30;;;11.70;63.40;;;;;;5119146;28;20073;-74
2021/10/30 10:44:41;;;;;;;16.45;9.35;;;11.70;63.40;;;;;;5119256;28;20385;-74
2021/10/30 10:47:10;;;;;;;20.05;12.05;;;11.70;63.60;;;;;;5119524;28;20051;-74
2021/10/30 10:52:23;;;;;;;19.38;10.20;;;11.50;63.50;;;;;;5119424;28;20111;-74
2021/10/30 10:54:55;;;;;;;19.23;11.18;;;11.40;63.50;;;;;;5119304;28;20028;-75
2021/10/30 10:57:24;;;;;;;19.92;11.50;;;11.40;63.60;;;;;;5119243;28;20023;-74
2021/10/30 11:00:19;;;;;;;15.88;9.05;;;11.30;64.20;;;;;;5118908;28;20024;-74
2021/10/30 11:02:50;;;;;;;23.30;11.68;;;11.30;64.20;;;;;;5118944;28;20111;-73
2021/10/30 11:05:20;;;;;;;22.70;13.27;;;11.30;64.50;;;;;;5116966;28;20027;-73
2021/10/30 11:07:51;;;;;;;27.10;13.60;;;11.10;65.70;;;;;;5116222;28;20054;-73
2021/10/30 11:10:32;;;;;;;23.17;11.43;;;11.00;66.70;;;;;;5115890;28;20023;-73
2021/10/30 11:13:00;;;;;;;19.83;10.95;;;11.00;67.30;;;;;;5115587;28;20035;-73
2021/10/30 11:15:40;;;;;;;19.60;10.73;;;11.00;67.30;;;;;;5115694;28;20023;-73
2021/10/30 11:18:20;;;;;;;28.60;11.35;;;11.10;67.40;;;;;;5115963;28;20492;-74
2021/10/30 11:20:55;;;;;;;23.73;11.60;;;11.00;67.90;;;;;;5115652;28;20022;-74
2021/10/30 11:23:30;;;;;;;20.52;11.20;;;11.00;68.20;;;;;;5115888;28;20548;-74
2021/10/30 11:26:22;;;;;;;18.02;10.88;;;11.00;69.10;;;;;;5115755;28;20024;-74
2021/10/30 11:28:48;;;;;;;17.48;10.65;;;11.00;69.50;;;;;;5133225;28;20038;-74
2021/10/30 11:31:24;;;;;;;17.92;10.35;;;11.00;69.40;;;;;;5134577;28;20016;-74
2021/10/30 11:34:07;;;;;;;21.00;11.75;;;11.00;69.60;;;;;;5120840;28;20049;-73
2021/10/30 11:36:37;;;;;;;23.92;15.02;;;11.10;69.70;;;;;;5121209;28;20023;-74
2021/10/30 11:39:09;;;;;;;34.33;15.70;;;11.10;70.50;;;;;;5115878;28;20051;-74
2021/10/30 11:41:37;;;;;;;29.30;14.75;;;11.00;71.70;;;;;;5115596;28;20035;-75
2021/10/30 11:44:06;;;;;;;22.63;13.32;;;11.00;73.00;;;;;;5115649;28;20039;-74
2021/10/30 11:46:36;;;;;;;26.90;13.65;;;11.10;73.30;;;;;;5131281;27;20344;-74
2021/10/30 11:49:01;;;;;;;21.13;12.98;;;11.00;75.10;;;;;;5116960;28;20020;-74
2021/10/30 11:51:33;;;;;;;26.02;12.80;;;11.00;75.30;;;;;;5117320;28;20038;-74
2021/10/30 11:54:00;;;;;;;22.13;12.60;;;10.90;76.10;;;;;;5118130;28;20019;-74
2021/10/30 11:56:28;;;;;;;19.02;11.80;;;10.90;76.20;;;;;;5117168;28;20030;-74
2021/10/30 11:59:02;;;;;;;20.80;11.85;;;10.90;76.50;;;;;;5122547;28;20037;-74
2021/10/30 12:01:27;;;;;;;16.42;10.82;;;10.90;77.10;;;;;;5116072;28;20020;-75
2021/10/30 12:04:17;;;;;;;18.13;10.68;;;10.90;78.70;;;;;;5117211;28;20076;-74
2021/10/30 12:06:44;;;;;;;17.45;10.63;;;11.00;78.50;;;;;;5116006;28;20030;-75
2021/10/30 12:09:23;;;;;;;17.33;9.73;;;11.10;78.60;;;;;;5116077;28;20399;-75
2021/10/30 12:11:51;;;;;;;18.60;10.32;;;11.20;79.10;;;;;;5114452;28;20027;-75
2021/10/30 12:14:32;;;;;;;14.60;9.50;;;11.20;79.70;;;;;;5114377;28;20015;-76
2021/10/30 12:17:18;;;;;;;15.43;9.68;;;11.30;80.10;;;;;;5114152;28;20019;-75
2021/10/30 12:19:56;;;;;;;13.38;7.90;;;11.40;80.80;;;;;;5114574;28;20027;-74
2021/10/30 12:22:30;;;;;;;13.23;7.70;;;11.50;81.70;;;;;;5114272;28;20425;-73
2021/10/30 12:25:04;;;;;;;13.63;6.77;;;11.50;82.40;;;;;;5095692;28;20031;-77
2021/10/30 12:27:34;;;;;;;12.02;6.45;;;11.50;82.30;;;;;;5114368;28;20049;-73
2021/10/30 12:30:12;;;;;;;10.52;6.65;;;11.50;82.70;;;;;;5114212;28;20027;-73
2021/10/30 12:32:39;;;;;;;10.27;6.03;;;11.60;83.00;;;;;;5114283;28;20028;-74
2021/10/30 12:35:05;;;;;;;9.88;5.35;;;11.60;83.20;;;;;;5114019;28;20020;-73
2021/10/30 12:37:34;;;;;;;12.82;5.70;;;11.70;83.30;;;;;;5114054;28;20452;-74
2021/10/30 12:40:06;;;;;;;8.18;4.63;;;11.60;83.20;;;;;;5114347;28;20488;-73
2021/10/30 12:42:34;;;;;;;7.20;4.60;;;11.70;83.40;;;;;;5114428;28;20030;-72
2021/10/30 12:44:59;;;;;;;10.38;4.90;;;11.80;83.80;;;;;;5114006;28;20066;-77
2021/10/30 12:47:27;;;;;;;5.95;3.83;;;11.80;84.10;;;;;;5113841;28;20047;-73
2021/10/30 12:49:58;;;;;;;11.35;6.57;;;11.80;83.90;;;;;;5113746;28;20024;-75
2021/10/30 12:52:47;;;;;;;9.82;5.93;;;11.80;84.60;;;;;;5113742;28;20467;-74